sensor_id;sensor_type;location;lat;lon;timestamp;temperature;humidity
54034;DHT22;39952;40.122;18.294;2022-09-09T00:01:08;29.80;69.10
54034;DHT22;39952;40.122;18.294;2022-09-09T00:04:26;29.70;69.40
54034;DHT22;39952;40.122;18.294;2022-09-09T00:07:40;29.70;69.50
54034;DHT22;39952;40.122;18.294;2022-09-09T00:10:53;29.60;69.50
54034;DHT22;39952;40.122;18.294;2022-09-09T00:14:11;29.60;69.80
54034;DHT22;39952;40.122;18.294;2022-09-09T00:17:30;29.80;69.40
54034;DHT22;39952;40.122;18.294;2022-09-09T00:20:45;29.80;69.40
54034;DHT22;39952;40.122;18.294;2022-09-09T00:23:56;29.90;69.00
54034;DHT22;39952;40.122;18.294;2022-09-09T00:27:07;29.90;68.80
54034;DHT22;39952;40.122;18.294;2022-09-09T00:30:18;29.90;68.90
54034;DHT22;39952;40.122;18.294;2022-09-09T00:33:28;29.90;69.00
54034;DHT22;39952;40.122;18.294;2022-09-09T00:36:37;30.00;68.80
54034;DHT22;39952;40.122;18.294;2022-09-09T00:39:46;29.90;69.00
54034;DHT22;39952;40.122;18.294;2022-09-09T00:43:13;30.00;68.90
54034;DHT22;39952;40.122;18.294;2022-09-09T00:46:44;30.10;68.70
54034;DHT22;39952;40.122;18.294;2022-09-09T00:50:00;30.10;68.50
54034;DHT22;39952;40.122;18.294;2022-09-09T00:53:19;30.00;68.90
54034;DHT22;39952;40.122;18.294;2022-09-09T00:56:32;29.90;68.90
54034;DHT22;39952;40.122;18.294;2022-09-09T00:59:47;29.80;69.60
54034;DHT22;39952;40.122;18.294;2022-09-09T01:03:10;29.70;69.70
54034;DHT22;39952;40.122;18.294;2022-09-09T01:06:24;29.70;69.80
54034;DHT22;39952;40.122;18.294;2022-09-09T01:09:42;29.60;70.20
54034;DHT22;39952;40.122;18.294;2022-09-09T01:12:52;29.50;70.20
54034;DHT22;39952;40.122;18.294;2022-09-09T01:16:04;29.60;70.20
54034;DHT22;39952;40.122;18.294;2022-09-09T01:19:23;29.60;70.00
54034;DHT22;39952;40.122;18.294;2022-09-09T01:22:36;29.50;70.00
54034;DHT22;39952;40.122;18.294;2022-09-09T01:26:11;29.40;70.50
54034;DHT22;39952;40.122;18.294;2022-09-09T01:29:21;29.50;70.30
54034;DHT22;39952;40.122;18.294;2022-09-09T01:32:41;29.60;70.00
54034;DHT22;39952;40.122;18.294;2022-09-09T01:35:53;29.50;70.10
54034;DHT22;39952;40.122;18.294;2022-09-09T01:39:04;29.50;70.10
54034;DHT22;39952;40.122;18.294;2022-09-09T01:42:15;29.50;70.20
54034;DHT22;39952;40.122;18.294;2022-09-09T01:45:23;29.40;70.50
54034;DHT22;39952;40.122;18.294;2022-09-09T01:48:31;29.40;70.40
54034;DHT22;39952;40.122;18.294;2022-09-09T01:51:46;29.40;70.50
54034;DHT22;39952;40.122;18.294;2022-09-09T01:54:56;29.60;70.00
54034;DHT22;39952;40.122;18.294;2022-09-09T01:58:20;29.60;70.00
54034;DHT22;39952;40.122;18.294;2022-09-09T02:01:41;29.60;70.00
54034;DHT22;39952;40.122;18.294;2022-09-09T02:04:56;29.50;70.30
54034;DHT22;39952;40.122;18.294;2022-09-09T02:08:07;29.50;70.10
54034;DHT22;39952;40.122;18.294;2022-09-09T02:11:27;29.50;70.20
54034;DHT22;39952;40.122;18.294;2022-09-09T02:14:48;29.20;71.10
54034;DHT22;39952;40.122;18.294;2022-09-09T02:17:58;29.20;71.30
54034;DHT22;39952;40.122;18.294;2022-09-09T02:21:09;29.30;70.90
54034;DHT22;39952;40.122;18.294;2022-09-09T02:24:19;29.20;71.30
54034;DHT22;39952;40.122;18.294;2022-09-09T02:27:34;29.20;71.40
54034;DHT22;39952;40.122;18.294;2022-09-09T02:30:45;29.30;71.20
54034;DHT22;39952;40.122;18.294;2022-09-09T02:33:57;29.20;71.60
54034;DHT22;39952;40.122;18.294;2022-09-09T02:37:07;29.30;71.40
54034;DHT22;39952;40.122;18.294;2022-09-09T02:40:15;29.30;71.10
54034;DHT22;39952;40.122;18.294;2022-09-09T02:43:31;29.30;71.30
54034;DHT22;39952;40.122;18.294;2022-09-09T02:47:05;29.30;71.00
54034;DHT22;39952;40.122;18.294;2022-09-09T02:50:17;29.50;70.70
54034;DHT22;39952;40.122;18.294;2022-09-09T02:53:34;29.40;70.70
54034;DHT22;39952;40.122;18.294;2022-09-09T02:56:49;29.30;71.10
54034;DHT22;39952;40.122;18.294;2022-09-09T02:59:59;29.30;71.00
54034;DHT22;39952;40.122;18.294;2022-09-09T03:03:11;29.50;70.80
54034;DHT22;39952;40.122;18.294;2022-09-09T03:06:18;29.60;70.60
54034;DHT22;39952;40.122;18.294;2022-09-09T03:09:34;29.50;70.80
54034;DHT22;39952;40.122;18.294;2022-09-09T03:12:40;29.40;70.90
54034;DHT22;39952;40.122;18.294;2022-09-09T03:15:48;29.30;71.20
54034;DHT22;39952;40.122;18.294;2022-09-09T03:18:58;29.40;71.00
54034;DHT22;39952;40.122;18.294;2022-09-09T03:22:09;29.40;70.80
54034;DHT22;39952;40.122;18.294;2022-09-09T03:25:19;29.50;70.50
54034;DHT22;39952;40.122;18.294;2022-09-09T03:28:27;29.40;70.70
54034;DHT22;39952;40.122;18.294;2022-09-09T03:31:37;29.30;70.80
54034;DHT22;39952;40.122;18.294;2022-09-09T03:34:45;29.40;70.90
54034;DHT22;39952;40.122;18.294;2022-09-09T03:37:52;29.40;70.40
54034;DHT22;39952;40.122;18.294;2022-09-09T03:41:00;29.50;70.00
54034;DHT22;39952;40.122;18.294;2022-09-09T03:44:08;29.60;69.80
54034;DHT22;39952;40.122;18.294;2022-09-09T03:47:17;29.50;69.90
54034;DHT22;39952;40.122;18.294;2022-09-09T03:50:26;29.50;70.00
54034;DHT22;39952;40.122;18.294;2022-09-09T03:53:33;29.70;69.70
54034;DHT22;39952;40.122;18.294;2022-09-09T03:56:41;29.60;69.90
54034;DHT22;39952;40.122;18.294;2022-09-09T03:59:50;29.50;70.10
54034;DHT22;39952;40.122;18.294;2022-09-09T04:02:57;29.60;70.20
54034;DHT22;39952;40.122;18.294;2022-09-09T04:06:06;29.70;69.70
54034;DHT22;39952;40.122;18.294;2022-09-09T04:09:13;29.70;69.90
54034;DHT22;39952;40.122;18.294;2022-09-09T04:12:20;29.60;70.00
54034;DHT22;39952;40.122;18.294;2022-09-09T04:15:27;29.60;70.10
54034;DHT22;39952;40.122;18.294;2022-09-09T04:18:34;29.60;70.00
54034;DHT22;39952;40.122;18.294;2022-09-09T04:21:43;29.60;70.00
54034;DHT22;39952;40.122;18.294;2022-09-09T04:24:50;29.50;70.20
54034;DHT22;39952;40.122;18.294;2022-09-09T04:27:58;29.30;70.50
54034;DHT22;39952;40.122;18.294;2022-09-09T04:31:06;29.30;70.90
54034;DHT22;39952;40.122;18.294;2022-09-09T04:34:16;29.40;70.50
54034;DHT22;39952;40.122;18.294;2022-09-09T04:37:24;29.40;70.30
54034;DHT22;39952;40.122;18.294;2022-09-09T04:40:32;29.40;70.60
54034;DHT22;39952;40.122;18.294;2022-09-09T04:43:39;29.30;70.90
54034;DHT22;39952;40.122;18.294;2022-09-09T04:46:46;29.30;71.10
54034;DHT22;39952;40.122;18.294;2022-09-09T04:49:53;29.30;71.40
54034;DHT22;39952;40.122;18.294;2022-09-09T04:53:03;29.10;71.40
54034;DHT22;39952;40.122;18.294;2022-09-09T04:56:12;29.10;71.50
54034;DHT22;39952;40.122;18.294;2022-09-09T04:59:25;29.10;71.60
54034;DHT22;39952;40.122;18.294;2022-09-09T05:02:37;28.80;72.60
54034;DHT22;39952;40.122;18.294;2022-09-09T05:05:45;29.00;71.60
54034;DHT22;39952;40.122;18.294;2022-09-09T05:08:54;29.00;72.20
54034;DHT22;39952;40.122;18.294;2022-09-09T05:12:03;29.20;71.20
54034;DHT22;39952;40.122;18.294;2022-09-09T05:15:14;29.30;70.90
54034;DHT22;39952;40.122;18.294;2022-09-09T05:18:21;29.30;71.10
54034;DHT22;39952;40.122;18.294;2022-09-09T05:21:28;29.40;70.80
54034;DHT22;39952;40.122;18.294;2022-09-09T05:24:38;29.60;70.20
54034;DHT22;39952;40.122;18.294;2022-09-09T05:27:45;29.70;70.00
54034;DHT22;39952;40.122;18.294;2022-09-09T05:31:00;29.60;70.00
54034;DHT22;39952;40.122;18.294;2022-09-09T05:34:11;29.70;69.90
54034;DHT22;39952;40.122;18.294;2022-09-09T05:37:18;29.80;69.60
54034;DHT22;39952;40.122;18.294;2022-09-09T05:40:28;29.90;66.70
54034;DHT22;39952;40.122;18.294;2022-09-09T05:43:35;30.00;68.20
54034;DHT22;39952;40.122;18.294;2022-09-09T05:46:43;30.00;68.50
54034;DHT22;39952;40.122;18.294;2022-09-09T05:49:52;30.10;67.70
54034;DHT22;39952;40.122;18.294;2022-09-09T05:52:59;30.20;67.40
54034;DHT22;39952;40.122;18.294;2022-09-09T05:56:10;30.20;67.50
54034;DHT22;39952;40.122;18.294;2022-09-09T05:59:20;30.10;67.80
54034;DHT22;39952;40.122;18.294;2022-09-09T06:02:31;30.10;67.80
54034;DHT22;39952;40.122;18.294;2022-09-09T06:05:38;30.00;67.60
54034;DHT22;39952;40.122;18.294;2022-09-09T06:08:45;30.10;67.90
54034;DHT22;39952;40.122;18.294;2022-09-09T06:11:55;30.00;68.00
54034;DHT22;39952;40.122;18.294;2022-09-09T06:15:04;30.00;68.20
54034;DHT22;39952;40.122;18.294;2022-09-09T06:18:11;30.10;67.90
54034;DHT22;39952;40.122;18.294;2022-09-09T06:21:19;30.20;68.00
54034;DHT22;39952;40.122;18.294;2022-09-09T06:24:26;30.10;67.50
54034;DHT22;39952;40.122;18.294;2022-09-09T06:27:37;30.30;67.00
54034;DHT22;39952;40.122;18.294;2022-09-09T06:30:44;30.30;66.90
54034;DHT22;39952;40.122;18.294;2022-09-09T06:33:52;30.40;66.40
54034;DHT22;39952;40.122;18.294;2022-09-09T06:37:02;30.50;66.20
54034;DHT22;39952;40.122;18.294;2022-09-09T06:40:15;30.30;66.90
54034;DHT22;39952;40.122;18.294;2022-09-09T06:43:24;30.50;66.70
54034;DHT22;39952;40.122;18.294;2022-09-09T06:46:33;30.60;65.70
54034;DHT22;39952;40.122;18.294;2022-09-09T06:49:41;30.50;66.20
54034;DHT22;39952;40.122;18.294;2022-09-09T06:52:52;30.50;66.60
54034;DHT22;39952;40.122;18.294;2022-09-09T06:55:58;30.50;65.80
54034;DHT22;39952;40.122;18.294;2022-09-09T06:59:08;30.60;65.90
54034;DHT22;39952;40.122;18.294;2022-09-09T07:02:16;30.40;66.50
54034;DHT22;39952;40.122;18.294;2022-09-09T07:05:23;30.50;66.20
54034;DHT22;39952;40.122;18.294;2022-09-09T07:08:31;30.50;66.20
54034;DHT22;39952;40.122;18.294;2022-09-09T07:11:40;30.60;66.10
54034;DHT22;39952;40.122;18.294;2022-09-09T07:14:49;30.70;65.20
54034;DHT22;39952;40.122;18.294;2022-09-09T07:18:01;30.80;65.30
54034;DHT22;39952;40.122;18.294;2022-09-09T07:21:09;31.10;64.40
54034;DHT22;39952;40.122;18.294;2022-09-09T07:24:17;31.20;64.10
54034;DHT22;39952;40.122;18.294;2022-09-09T07:27:24;31.30;63.60
54034;DHT22;39952;40.122;18.294;2022-09-09T07:30:33;31.30;63.30
54034;DHT22;39952;40.122;18.294;2022-09-09T07:33:40;31.40;63.00
54034;DHT22;39952;40.122;18.294;2022-09-09T07:36:47;31.80;61.60
54034;DHT22;39952;40.122;18.294;2022-09-09T07:39:56;32.10;60.80
54034;DHT22;39952;40.122;18.294;2022-09-09T07:43:03;32.30;60.30
54034;DHT22;39952;40.122;18.294;2022-09-09T07:46:12;32.60;59.30
54034;DHT22;39952;40.122;18.294;2022-09-09T07:49:20;32.80;58.20
54034;DHT22;39952;40.122;18.294;2022-09-09T07:52:33;32.90;58.10
54034;DHT22;39952;40.122;18.294;2022-09-09T07:55:43;32.80;58.40
54034;DHT22;39952;40.122;18.294;2022-09-09T07:58:53;33.00;58.10
54034;DHT22;39952;40.122;18.294;2022-09-09T08:02:01;32.80;58.20
54034;DHT22;39952;40.122;18.294;2022-09-09T08:05:11;32.80;58.40
54034;DHT22;39952;40.122;18.294;2022-09-09T08:08:19;32.80;58.30
54034;DHT22;39952;40.122;18.294;2022-09-09T08:11:28;32.70;58.50
54034;DHT22;39952;40.122;18.294;2022-09-09T08:14:37;32.50;59.00
54034;DHT22;39952;40.122;18.294;2022-09-09T08:17:45;32.70;59.00
54034;DHT22;39952;40.122;18.294;2022-09-09T08:20:53;32.80;59.10
54034;DHT22;39952;40.122;18.294;2022-09-09T08:24:01;33.00;57.90
54034;DHT22;39952;40.122;18.294;2022-09-09T08:27:09;33.00;58.10
54034;DHT22;39952;40.122;18.294;2022-09-09T08:30:16;33.00;57.50
54034;DHT22;39952;40.122;18.294;2022-09-09T08:33:26;33.00;58.00
54034;DHT22;39952;40.122;18.294;2022-09-09T08:36:35;33.10;57.70
54034;DHT22;39952;40.122;18.294;2022-09-09T08:39:43;32.80;57.70
54034;DHT22;39952;40.122;18.294;2022-09-09T08:42:53;33.00;57.80
54034;DHT22;39952;40.122;18.294;2022-09-09T08:46:07;33.20;57.40
54034;DHT22;39952;40.122;18.294;2022-09-09T08:49:29;33.00;57.60
54034;DHT22;39952;40.122;18.294;2022-09-09T08:52:48;33.10;57.80
54034;DHT22;39952;40.122;18.294;2022-09-09T08:55:57;32.80;58.40
54034;DHT22;39952;40.122;18.294;2022-09-09T08:59:15;32.70;59.10
54034;DHT22;39952;40.122;18.294;2022-09-09T09:02:26;32.80;58.70
54034;DHT22;39952;40.122;18.294;2022-09-09T09:05:42;32.80;58.50
54034;DHT22;39952;40.122;18.294;2022-09-09T09:09:01;33.00;58.10
54034;DHT22;39952;40.122;18.294;2022-09-09T09:12:15;34.30;54.00
54034;DHT22;39952;40.122;18.294;2022-09-09T09:15:25;35.40;51.20
54034;DHT22;39952;40.122;18.294;2022-09-09T09:18:33;36.80;47.40
54034;DHT22;39952;40.122;18.294;2022-09-09T09:21:43;38.50;44.10
54034;DHT22;39952;40.122;18.294;2022-09-09T09:24:54;40.50;40.10
54034;DHT22;39952;40.122;18.294;2022-09-09T09:28:12;40.70;39.20
54034;DHT22;39952;40.122;18.294;2022-09-09T09:31:25;41.40;37.80
54034;DHT22;39952;40.122;18.294;2022-09-09T09:34:32;42.80;35.00
54034;DHT22;39952;40.122;18.294;2022-09-09T09:37:41;42.80;35.20
54034;DHT22;39952;40.122;18.294;2022-09-09T09:41:11;42.90;35.50
54034;DHT22;39952;40.122;18.294;2022-09-09T09:44:23;41.80;36.90
54034;DHT22;39952;40.122;18.294;2022-09-09T09:47:30;41.80;36.40
54034;DHT22;39952;40.122;18.294;2022-09-09T09:50:57;42.10;36.20
54034;DHT22;39952;40.122;18.294;2022-09-09T09:54:17;41.50;37.30
54034;DHT22;39952;40.122;18.294;2022-09-09T09:57:33;40.90;37.90
54034;DHT22;39952;40.122;18.294;2022-09-09T10:00:47;41.20;37.80
54034;DHT22;39952;40.122;18.294;2022-09-09T10:03:59;40.50;39.40
54034;DHT22;39952;40.122;18.294;2022-09-09T10:07:11;40.40;39.80
54034;DHT22;39952;40.122;18.294;2022-09-09T10:10:25;41.80;37.10
54034;DHT22;39952;40.122;18.294;2022-09-09T10:13:40;42.70;35.20
54034;DHT22;39952;40.122;18.294;2022-09-09T10:17:01;43.10;34.50
54034;DHT22;39952;40.122;18.294;2022-09-09T10:20:30;42.80;34.80
54034;DHT22;39952;40.122;18.294;2022-09-09T10:23:51;42.30;35.40
54034;DHT22;39952;40.122;18.294;2022-09-09T10:27:09;42.20;35.70
54034;DHT22;39952;40.122;18.294;2022-09-09T10:30:19;42.80;34.50
54034;DHT22;39952;40.122;18.294;2022-09-09T10:33:35;42.30;35.40
54034;DHT22;39952;40.122;18.294;2022-09-09T10:36:47;42.30;35.40
54034;DHT22;39952;40.122;18.294;2022-09-09T10:40:02;41.60;36.50
54034;DHT22;39952;40.122;18.294;2022-09-09T10:43:23;39.80;39.60
54034;DHT22;39952;40.122;18.294;2022-09-09T10:46:45;38.40;42.10
54034;DHT22;39952;40.122;18.294;2022-09-09T10:50:07;37.70;43.60
54034;DHT22;39952;40.122;18.294;2022-09-09T10:53:24;36.80;45.90
54034;DHT22;39952;40.122;18.294;2022-09-09T10:56:35;36.80;45.10
54034;DHT22;39952;40.122;18.294;2022-09-09T10:59:48;36.90;45.40
54034;DHT22;39952;40.122;18.294;2022-09-09T11:03:00;36.60;45.60
54034;DHT22;39952;40.122;18.294;2022-09-09T11:06:12;36.40;46.00
54034;DHT22;39952;40.122;18.294;2022-09-09T11:09:22;36.00;48.00
54034;DHT22;39952;40.122;18.294;2022-09-09T11:12:31;36.00;46.80
54034;DHT22;39952;40.122;18.294;2022-09-09T11:15:46;36.20;46.80
54034;DHT22;39952;40.122;18.294;2022-09-09T11:18:57;36.30;46.80
54034;DHT22;39952;40.122;18.294;2022-09-09T11:22:08;35.80;47.20
54034;DHT22;39952;40.122;18.294;2022-09-09T11:25:25;35.60;49.10
54034;DHT22;39952;40.122;18.294;2022-09-09T11:28:46;35.80;48.50
54034;DHT22;39952;40.122;18.294;2022-09-09T11:32:11;35.60;49.00
54034;DHT22;39952;40.122;18.294;2022-09-09T11:35:33;35.80;48.50
54034;DHT22;39952;40.122;18.294;2022-09-09T11:38:45;36.40;47.30
54034;DHT22;39952;40.122;18.294;2022-09-09T11:41:52;36.30;47.50
54034;DHT22;39952;40.122;18.294;2022-09-09T11:45:09;35.80;48.10
54034;DHT22;39952;40.122;18.294;2022-09-09T11:48:31;35.60;49.60
54034;DHT22;39952;40.122;18.294;2022-09-09T11:51:38;35.40;50.10
54034;DHT22;39952;40.122;18.294;2022-09-09T11:54:47;36.00;48.70
54034;DHT22;39952;40.122;18.294;2022-09-09T11:57:58;35.80;48.10
54034;DHT22;39952;40.122;18.294;2022-09-09T12:01:34;36.00;47.60
54034;DHT22;39952;40.122;18.294;2022-09-09T12:04:46;36.10;47.80
54034;DHT22;39952;40.122;18.294;2022-09-09T12:07:57;36.20;47.80
54034;DHT22;39952;40.122;18.294;2022-09-09T12:11:05;36.40;47.10
54034;DHT22;39952;40.122;18.294;2022-09-09T12:14:20;36.30;47.20
54034;DHT22;39952;40.122;18.294;2022-09-09T12:17:29;35.90;48.40
54034;DHT22;39952;40.122;18.294;2022-09-09T12:20:39;35.70;49.10
54034;DHT22;39952;40.122;18.294;2022-09-09T12:23:58;35.60;48.30
54034;DHT22;39952;40.122;18.294;2022-09-09T12:27:11;35.70;48.20
54034;DHT22;39952;40.122;18.294;2022-09-09T12:30:20;35.80;48.10
54034;DHT22;39952;40.122;18.294;2022-09-09T12:33:35;36.10;47.50
54034;DHT22;39952;40.122;18.294;2022-09-09T12:36:44;36.50;46.50
54034;DHT22;39952;40.122;18.294;2022-09-09T12:39:57;36.80;46.90
54034;DHT22;39952;40.122;18.294;2022-09-09T12:43:17;37.30;46.00
54034;DHT22;39952;40.122;18.294;2022-09-09T12:46:32;37.20;45.60
54034;DHT22;39952;40.122;18.294;2022-09-09T12:49:40;37.10;45.90
54034;DHT22;39952;40.122;18.294;2022-09-09T12:52:50;36.90;45.70
54034;DHT22;39952;40.122;18.294;2022-09-09T12:55:58;36.60;45.30
54034;DHT22;39952;40.122;18.294;2022-09-09T12:59:17;36.70;45.70
54034;DHT22;39952;40.122;18.294;2022-09-09T13:02:28;36.70;45.80
54034;DHT22;39952;40.122;18.294;2022-09-09T13:05:37;36.70;45.80
54034;DHT22;39952;40.122;18.294;2022-09-09T13:08:46;36.50;46.20
54034;DHT22;39952;40.122;18.294;2022-09-09T13:11:56;36.20;47.20
54034;DHT22;39952;40.122;18.294;2022-09-09T13:15:13;36.50;47.10
54034;DHT22;39952;40.122;18.294;2022-09-09T13:18:23;36.70;46.40
54034;DHT22;39952;40.122;18.294;2022-09-09T13:21:33;36.40;46.10
54034;DHT22;39952;40.122;18.294;2022-09-09T13:24:41;36.40;46.80
54034;DHT22;39952;40.122;18.294;2022-09-09T13:27:54;36.30;47.50
54034;DHT22;39952;40.122;18.294;2022-09-09T13:31:02;36.30;47.50
54034;DHT22;39952;40.122;18.294;2022-09-09T13:34:14;35.90;48.40
54034;DHT22;39952;40.122;18.294;2022-09-09T13:37:24;36.00;47.80
54034;DHT22;39952;40.122;18.294;2022-09-09T13:40:34;35.80;48.40
54034;DHT22;39952;40.122;18.294;2022-09-09T13:43:43;35.70;48.70
54034;DHT22;39952;40.122;18.294;2022-09-09T13:47:00;35.60;48.90
54034;DHT22;39952;40.122;18.294;2022-09-09T13:50:15;35.80;48.50
54034;DHT22;39952;40.122;18.294;2022-09-09T13:53:24;35.90;47.50
54034;DHT22;39952;40.122;18.294;2022-09-09T13:56:33;35.80;47.90
54034;DHT22;39952;40.122;18.294;2022-09-09T13:59:40;35.20;49.90
54034;DHT22;39952;40.122;18.294;2022-09-09T14:02:58;35.10;49.80
54034;DHT22;39952;40.122;18.294;2022-09-09T14:06:07;35.10;49.70
54034;DHT22;39952;40.122;18.294;2022-09-09T14:09:15;35.20;49.30
54034;DHT22;39952;40.122;18.294;2022-09-09T14:12:24;35.20;49.70
54034;DHT22;39952;40.122;18.294;2022-09-09T14:15:31;34.80;50.30
54034;DHT22;39952;40.122;18.294;2022-09-09T14:18:38;34.60;50.50
54034;DHT22;39952;40.122;18.294;2022-09-09T14:21:46;34.50;51.20
54034;DHT22;39952;40.122;18.294;2022-09-09T14:24:52;34.30;51.70
54034;DHT22;39952;40.122;18.294;2022-09-09T14:28:00;34.30;51.70
54034;DHT22;39952;40.122;18.294;2022-09-09T14:31:08;34.20;52.20
54034;DHT22;39952;40.122;18.294;2022-09-09T14:34:16;34.20;51.60
54034;DHT22;39952;40.122;18.294;2022-09-09T14:37:24;34.20;51.70
54034;DHT22;39952;40.122;18.294;2022-09-09T14:40:31;34.10;52.20
54034;DHT22;39952;40.122;18.294;2022-09-09T14:43:41;33.90;53.20
54034;DHT22;39952;40.122;18.294;2022-09-09T14:46:48;33.80;53.80
54034;DHT22;39952;40.122;18.294;2022-09-09T14:49:55;33.80;53.70
54034;DHT22;39952;40.122;18.294;2022-09-09T14:53:02;33.80;52.90
54034;DHT22;39952;40.122;18.294;2022-09-09T14:56:11;33.70;53.80
54034;DHT22;39952;40.122;18.294;2022-09-09T14:59:19;33.70;54.20
54034;DHT22;39952;40.122;18.294;2022-09-09T15:02:27;33.80;53.10
54034;DHT22;39952;40.122;18.294;2022-09-09T15:05:36;33.70;53.20
54034;DHT22;39952;40.122;18.294;2022-09-09T15:08:44;33.70;53.80
54034;DHT22;39952;40.122;18.294;2022-09-09T15:11:51;33.50;53.50
54034;DHT22;39952;40.122;18.294;2022-09-09T15:14:59;33.30;54.90
54034;DHT22;39952;40.122;18.294;2022-09-09T15:18:06;33.20;54.90
54034;DHT22;39952;40.122;18.294;2022-09-09T15:21:14;33.20;54.70
54034;DHT22;39952;40.122;18.294;2022-09-09T15:24:22;33.10;55.50
54034;DHT22;39952;40.122;18.294;2022-09-09T15:27:28;32.90;56.20
54034;DHT22;39952;40.122;18.294;2022-09-09T15:30:38;33.00;56.40
54034;DHT22;39952;40.122;18.294;2022-09-09T15:33:47;32.70;56.50
54034;DHT22;39952;40.122;18.294;2022-09-09T15:36:55;32.60;57.40
54034;DHT22;39952;40.122;18.294;2022-09-09T15:40:02;32.60;57.10
54034;DHT22;39952;40.122;18.294;2022-09-09T15:43:09;32.60;57.10
54034;DHT22;39952;40.122;18.294;2022-09-09T15:46:28;32.70;56.60
54034;DHT22;39952;40.122;18.294;2022-09-09T15:49:35;32.70;55.60
54034;DHT22;39952;40.122;18.294;2022-09-09T15:52:42;32.80;56.20
54034;DHT22;39952;40.122;18.294;2022-09-09T15:55:54;32.80;55.80
54034;DHT22;39952;40.122;18.294;2022-09-09T15:59:02;32.90;55.40
54034;DHT22;39952;40.122;18.294;2022-09-09T16:02:11;32.80;55.30
54034;DHT22;39952;40.122;18.294;2022-09-09T16:05:17;32.70;55.80
54034;DHT22;39952;40.122;18.294;2022-09-09T16:08:24;32.40;58.30
54034;DHT22;39952;40.122;18.294;2022-09-09T16:11:33;32.40;61.10
54034;DHT22;39952;40.122;18.294;2022-09-09T16:14:40;32.50;61.60
54034;DHT22;39952;40.122;18.294;2022-09-09T16:17:48;32.30;62.80
54034;DHT22;39952;40.122;18.294;2022-09-09T16:20:55;32.20;63.30
54034;DHT22;39952;40.122;18.294;2022-09-09T16:24:02;31.70;64.60
54034;DHT22;39952;40.122;18.294;2022-09-09T16:27:09;31.70;65.10
54034;DHT22;39952;40.122;18.294;2022-09-09T16:30:17;31.80;64.80
54034;DHT22;39952;40.122;18.294;2022-09-09T16:33:24;31.50;65.90
54034;DHT22;39952;40.122;18.294;2022-09-09T16:36:32;31.50;65.80
54034;DHT22;39952;40.122;18.294;2022-09-09T16:39:40;31.40;66.20
54034;DHT22;39952;40.122;18.294;2022-09-09T16:42:46;31.30;66.70
54034;DHT22;39952;40.122;18.294;2022-09-09T16:45:53;31.20;67.10
54034;DHT22;39952;40.122;18.294;2022-09-09T16:49:02;31.10;67.10
54034;DHT22;39952;40.122;18.294;2022-09-09T16:52:10;31.10;67.20
54034;DHT22;39952;40.122;18.294;2022-09-09T16:55:17;31.10;67.30
54034;DHT22;39952;40.122;18.294;2022-09-09T16:58:25;31.00;67.60
54034;DHT22;39952;40.122;18.294;2022-09-09T17:01:33;31.10;66.60
54034;DHT22;39952;40.122;18.294;2022-09-09T17:04:43;31.10;66.70
54034;DHT22;39952;40.122;18.294;2022-09-09T17:07:50;31.20;66.40
54034;DHT22;39952;40.122;18.294;2022-09-09T17:10:57;31.30;65.90
54034;DHT22;39952;40.122;18.294;2022-09-09T17:14:04;31.30;65.90
54034;DHT22;39952;40.122;18.294;2022-09-09T17:17:12;31.20;66.50
54034;DHT22;39952;40.122;18.294;2022-09-09T17:20:37;31.20;66.20
54034;DHT22;39952;40.122;18.294;2022-09-09T17:23:50;31.00;66.90
54034;DHT22;39952;40.122;18.294;2022-09-09T17:26:57;30.90;67.00
54034;DHT22;39952;40.122;18.294;2022-09-09T17:30:04;30.90;66.80
54034;DHT22;39952;40.122;18.294;2022-09-09T17:33:11;30.90;67.30
54034;DHT22;39952;40.122;18.294;2022-09-09T17:36:22;30.70;67.70
54034;DHT22;39952;40.122;18.294;2022-09-09T17:39:28;30.80;67.70
54034;DHT22;39952;40.122;18.294;2022-09-09T17:42:35;30.80;68.10
54034;DHT22;39952;40.122;18.294;2022-09-09T17:45:42;30.80;67.90
54034;DHT22;39952;40.122;18.294;2022-09-09T17:48:55;30.60;68.10
54034;DHT22;39952;40.122;18.294;2022-09-09T17:52:03;30.50;68.70
54034;DHT22;39952;40.122;18.294;2022-09-09T17:55:11;30.50;68.30
54034;DHT22;39952;40.122;18.294;2022-09-09T17:58:17;30.50;68.60
54034;DHT22;39952;40.122;18.294;2022-09-09T18:01:26;30.40;69.00
54034;DHT22;39952;40.122;18.294;2022-09-09T18:04:33;30.30;69.30
54034;DHT22;39952;40.122;18.294;2022-09-09T18:07:42;30.40;69.00
54034;DHT22;39952;40.122;18.294;2022-09-09T18:10:51;30.40;68.80
54034;DHT22;39952;40.122;18.294;2022-09-09T18:14:02;30.50;68.40
54034;DHT22;39952;40.122;18.294;2022-09-09T18:17:09;30.50;68.50
54034;DHT22;39952;40.122;18.294;2022-09-09T18:20:16;30.30;69.30
54034;DHT22;39952;40.122;18.294;2022-09-09T18:23:24;30.40;68.80
54034;DHT22;39952;40.122;18.294;2022-09-09T18:26:31;30.10;69.60
54034;DHT22;39952;40.122;18.294;2022-09-09T18:29:38;30.20;69.10
54034;DHT22;39952;40.122;18.294;2022-09-09T18:32:48;30.30;68.60
54034;DHT22;39952;40.122;18.294;2022-09-09T18:35:56;30.30;68.60
54034;DHT22;39952;40.122;18.294;2022-09-09T18:39:05;30.50;68.00
54034;DHT22;39952;40.122;18.294;2022-09-09T18:42:12;30.30;68.60
54034;DHT22;39952;40.122;18.294;2022-09-09T18:45:19;30.30;68.10
54034;DHT22;39952;40.122;18.294;2022-09-09T18:48:27;30.30;67.70
54034;DHT22;39952;40.122;18.294;2022-09-09T18:51:34;30.40;67.70
54034;DHT22;39952;40.122;18.294;2022-09-09T18:54:42;30.50;67.50
54034;DHT22;39952;40.122;18.294;2022-09-09T18:57:50;30.50;67.70
54034;DHT22;39952;40.122;18.294;2022-09-09T19:00:57;30.00;69.80
54034;DHT22;39952;40.122;18.294;2022-09-09T19:04:06;30.10;69.30
54034;DHT22;39952;40.122;18.294;2022-09-09T19:07:13;30.40;68.90
54034;DHT22;39952;40.122;18.294;2022-09-09T19:10:21;30.60;68.20
54034;DHT22;39952;40.122;18.294;2022-09-09T19:13:27;30.70;67.70
54034;DHT22;39952;40.122;18.294;2022-09-09T19:16:36;30.70;67.60
54034;DHT22;39952;40.122;18.294;2022-09-09T19:19:43;30.60;68.00
54034;DHT22;39952;40.122;18.294;2022-09-09T19:22:50;30.50;68.80
54034;DHT22;39952;40.122;18.294;2022-09-09T19:26:02;30.70;68.40
54034;DHT22;39952;40.122;18.294;2022-09-09T19:29:12;30.80;68.30
54034;DHT22;39952;40.122;18.294;2022-09-09T19:32:20;30.80;68.30
54034;DHT22;39952;40.122;18.294;2022-09-09T19:35:56;30.80;68.40
54034;DHT22;39952;40.122;18.294;2022-09-09T19:39:03;30.80;68.70
54034;DHT22;39952;40.122;18.294;2022-09-09T19:42:11;30.80;68.90
54034;DHT22;39952;40.122;18.294;2022-09-09T19:45:18;30.60;69.60